Time;durP1;ratioP1;P1;durP2;ratioP2;P2;SDS_P1;SDS_P2;PMS_P1;PMS_P2;Temp;Humidity;BMP_temperature;BMP_pressure;BME280_temperature;BME280_humidity;BME280_pressure;Samples;Min_cycle;Max_cycle;Signal;HPM_P1;HPM_P2
2022/06/02 00:02:29;;;;;;;4.50;2.38;;;;;;;;;;5105383;28;20447;-68
2022/06/02 00:04:54;;;;;;;4.18;2.45;;;;;;;;;;5102515;28;20038;-68
2022/06/02 00:07:24;;;;;;;5.32;2.88;;;;;;;;;;5102231;28;20023;-68
2022/06/02 00:09:49;;;;;;;5.00;2.63;;;;;;;;;;5110126;28;20038;-68
2022/06/02 00:12:18;;;;;;;6.65;2.80;;;;;;;;;;5104196;28;20067;-68
2022/06/02 00:15:02;;;;;;;5.22;2.80;;;;;;;;;;5104106;28;20490;-68
2022/06/02 00:17:46;;;;;;;6.45;3.08;;;;;;;;;;5100418;28;20032;-68
2022/06/02 00:20:19;;;;;;;6.30;3.03;;;;;;;;;;5111577;28;20031;-68
2022/06/02 00:22:54;;;;;;;6.57;2.88;;;;;;;;;;5103609;28;20483;-68
2022/06/02 00:25:30;;;;;;;5.78;2.88;;;;;;;;;;5109611;28;20039;-68
2022/06/02 00:28:04;;;;;;;5.38;3.00;;;;;;;;;;5106303;28;20023;-68
2022/06/02 00:30:41;;;;;;;7.45;3.53;;;;;;;;;;5105189;28;20082;-68
2022/06/02 00:33:22;;;;;;;5.55;2.83;;;;;;;;;;5097756;28;20594;-68
2022/06/02 00:35:59;;;;;;;8.75;3.42;;;;;;;;;;5104661;28;20062;-68
2022/06/02 00:38:34;;;;;;;12.10;3.78;;;;;;;;;;5103369;28;20108;-68
2022/06/02 00:41:22;;;;;;;6.00;2.97;;;;;;;;;;5109003;28;20441;-68
2022/06/02 00:43:55;;;;;;;8.35;3.53;;;;;;;;;;5092339;28;20043;-68
2022/06/02 00:46:25;;;;;;;6.05;2.70;;;;;;;;;;5108418;28;20039;-68
2022/06/02 00:48:56;;;;;;;5.18;3.00;;;;;;;;;;5108457;28;20479;-68
2022/06/02 00:51:26;;;;;;;7.25;2.83;;;;;;;;;;5115315;28;20028;-68
2022/06/02 00:59:31;;;;;;;4.10;2.13;;;;;;;;;;5094310;28;20038;-68
2022/06/02 01:01:56;;;;;;;5.10;2.05;;;;;;;;;;5092640;28;20038;-68
2022/06/02 01:04:22;;;;;;;3.60;1.95;;;;;;;;;;5101460;28;20036;-68
2022/06/02 01:07:03;;;;;;;7.38;2.42;;;;;;;;;;5107272;28;20098;-68
2022/06/02 01:09:28;;;;;;;4.53;2.10;;;;;;;;;;5108238;28;20116;-68
2022/06/02 01:12:06;;;;;;;7.50;2.65;;;;;;;;;;5108197;28;20059;-68
2022/06/02 01:14:34;;;;;;;5.53;2.20;;;;;;;;;;5101901;28;20169;-68
2022/06/02 01:17:14;;;;;;;3.55;1.98;;;;;;;;;;5102392;28;20068;-68
2022/06/02 01:19:58;;;;;;;4.20;2.05;;;;;;;;;;5112229;28;20032;-68
2022/06/02 01:22:38;;;;;;;3.63;2.22;;;;;;;;;;5110712;28;20024;-68
2022/06/02 01:25:09;;;;;;;9.02;2.67;;;;;;;;;;5112450;28;20051;-68
2022/06/02 01:27:46;;;;;;;5.35;2.80;;;;;;;;;;5109266;28;20015;-68
2022/06/02 01:30:20;;;;;;;4.63;2.50;;;;;;;;;;5111447;28;20031;-68
2022/06/02 01:33:01;;;;;;;4.68;2.90;;;;;;;;;;5110872;28;20016;-68
2022/06/02 01:35:38;;;;;;;4.00;1.92;;;;;;;;;;5106650;28;20047;-68
2022/06/02 01:38:20;;;;;;;11.05;2.95;;;;;;;;;;5109881;28;20024;-68
2022/06/02 01:40:55;;;;;;;5.65;1.98;;;;;;;;;;5103832;28;20063;-68
2022/06/02 01:43:20;;;;;;;4.35;2.42;;;;;;;;;;5112419;28;20097;-68
2022/06/02 01:45:52;;;;;;;7.20;2.58;;;;;;;;;;5107381;28;20467;-68
2022/06/02 01:48:35;;;;;;;4.07;2.45;;;;;;;;;;5109814;28;20015;-68
2022/06/02 01:51:00;;;;;;;4.57;2.45;;;;;;;;;;5106877;28;20443;-68
2022/06/02 01:53:25;;;;;;;4.40;2.25;;;;;;;;;;5109794;28;20111;-68
2022/06/02 01:56:09;;;;;;;5.20;2.72;;;;;;;;;;5108455;28;20012;-68
2022/06/02 01:58:53;;;;;;;4.35;2.08;;;;;;;;;;5102517;28;20102;-68
2022/06/02 02:01:29;;;;;;;6.40;2.25;;;;;;;;;;5106751;28;20073;-68
2022/06/02 02:04:00;;;;;;;4.88;2.25;;;;;;;;;;5106865;28;20040;-68
2022/06/02 02:06:43;;;;;;;4.75;2.15;;;;;;;;;;5112826;28;20032;-68
2022/06/02 02:09:08;;;;;;;4.05;2.03;;;;;;;;;;5108611;28;20031;-68
2022/06/02 02:11:42;;;;;;;4.03;1.98;;;;;;;;;;5114217;28;20031;-68
2022/06/02 02:14:11;;;;;;;6.22;2.20;;;;;;;;;;5108285;28;20039;-68
2022/06/02 02:16:50;;;;;;;7.00;2.45;;;;;;;;;;5100207;28;20134;-68
2022/06/02 02:19:18;;;;;;;5.28;2.50;;;;;;;;;;5100524;28;20054;-68
2022/06/02 02:21:43;;;;;;;5.93;2.47;;;;;;;;;;5109314;28;20030;-68
2022/06/02 02:24:29;;;;;;;4.10;2.53;;;;;;;;;;5110798;28;20039;-68
2022/06/02 02:27:07;;;;;;;6.45;2.70;;;;;;;;;;5057760;28;20069;-68
2022/06/02 02:29:38;;;;;;;6.90;2.83;;;;;;;;;;5111802;28;20037;-68
2022/06/02 02:32:10;;;;;;;4.43;2.45;;;;;;;;;;5104276;28;20024;-68
2022/06/02 02:34:43;;;;;;;4.72;2.17;;;;;;;;;;5104633;28;20028;-68
2022/06/02 02:37:17;;;;;;;6.95;2.95;;;;;;;;;;5105276;28;20055;-68
2022/06/02 02:39:54;;;;;;;9.27;2.97;;;;;;;;;;5103994;28;20027;-68
2022/06/02 02:42:20;;;;;;;6.43;2.28;;;;;;;;;;5103507;28;20020;-68
2022/06/02 02:45:02;;;;;;;5.07;2.33;;;;;;;;;;5104477;28;20051;-68
2022/06/02 02:47:33;;;;;;;4.70;2.25;;;;;;;;;;5102951;28;20099;-68
2022/06/02 02:50:01;;;;;;;4.72;2.28;;;;;;;;;;5099340;28;20032;-68
2022/06/02 02:52:58;;;;;;;8.45;2.65;;;;;;;;;;5110570;28;20043;-68
2022/06/02 02:55:23;;;;;;;4.10;2.13;;;;;;;;;;5047666;28;20040;-68
2022/06/02 02:57:53;;;;;;;7.57;2.45;;;;;;;;;;5105997;28;20043;-68
2022/06/02 03:00:21;;;;;;;4.68;2.58;;;;;;;;;;5096611;28;20029;-68
2022/06/02 03:02:49;;;;;;;3.53;2.15;;;;;;;;;;5103977;28;20089;-69
2022/06/02 03:05:20;;;;;;;4.93;2.30;;;;;;;;;;5107690;28;20422;-67
2022/06/02 03:07:45;;;;;;;5.68;3.00;;;;;;;;;;5105966;28;20021;-68
2022/06/02 03:10:21;;;;;;;6.75;3.10;;;;;;;;;;5112022;28;20039;-68
2022/06/02 03:12:55;;;;;;;4.07;2.50;;;;;;;;;;5102786;28;20028;-68
2022/06/02 03:15:39;;;;;;;4.50;2.45;;;;;;;;;;5104233;28;20040;-68
2022/06/02 03:18:12;;;;;;;8.47;2.77;;;;;;;;;;5097006;28;20038;-68
2022/06/02 03:20:37;;;;;;;4.65;2.30;;;;;;;;;;5105961;28;20043;-68
2022/06/02 03:23:11;;;;;;;4.55;2.38;;;;;;;;;;5108246;28;20024;-68
2022/06/02 03:26:15;;;;;;;4.93;2.30;;;;;;;;;;5091946;28;20446;-68
2022/06/02 03:28:59;;;;;;;5.80;2.60;;;;;;;;;;4999595;28;20059;-68
2022/06/02 03:31:33;;;;;;;4.25;2.55;;;;;;;;;;4992159;28;20035;-67
2022/06/02 03:34:11;;;;;;;5.60;2.72;;;;;;;;;;5064156;28;20122;-68
2022/06/02 03:36:47;;;;;;;7.80;2.40;;;;;;;;;;5101071;28;20047;-68
2022/06/02 03:39:29;;;;;;;5.65;2.88;;;;;;;;;;5110098;28;20122;-68
2022/06/02 03:42:13;;;;;;;7.55;3.70;;;;;;;;;;5103830;28;20419;-68
2022/06/02 03:44:42;;;;;;;5.00;2.78;;;;;;;;;;5105969;28;20448;-68
2022/06/02 03:47:07;;;;;;;7.40;3.38;;;;;;;;;;5102153;28;20028;-68
2022/06/02 03:49:48;;;;;;;6.45;2.45;;;;;;;;;;5101256;28;20032;-68
2022/06/02 03:52:21;;;;;;;4.60;2.65;;;;;;;;;;5101217;28;20536;-68
2022/06/02 03:54:49;;;;;;;4.55;2.60;;;;;;;;;;5098744;28;20027;-68
2022/06/02 03:57:38;;;;;;;4.10;2.42;;;;;;;;;;5097402;28;20035;-68
2022/06/02 04:00:21;;;;;;;6.35;2.83;;;;;;;;;;5101148;28;20077;-68
2022/06/02 04:02:59;;;;;;;4.82;2.92;;;;;;;;;;5088394;28;21557;-68
2022/06/02 04:05:30;;;;;;;6.00;2.58;;;;;;;;;;5096453;28;20044;-68
2022/06/02 04:08:03;;;;;;;5.53;2.72;;;;;;;;;;5105853;28;20436;-68
2022/06/02 04:10:37;;;;;;;5.65;2.50;;;;;;;;;;5108271;28;20064;-68
2022/06/02 04:16:05;;;;;;;3.87;2.10;;;;;;;;;;5106934;28;20500;-68
2022/06/02 04:18:30;;;;;;;3.30;1.85;;;;;;;;;;5101931;28;20323;-68
2022/06/02 04:20:55;;;;;;;5.07;2.47;;;;;;;;;;5105476;28;20055;-68
2022/06/02 04:23:44;;;;;;;4.38;2.38;;;;;;;;;;5103422;28;20092;-68
2022/06/02 04:26:27;;;;;;;4.35;2.42;;;;;;;;;;5103715;28;20032;-68
2022/06/02 04:29:08;;;;;;;4.88;2.40;;;;;;;;;;5098494;28;20420;-68
2022/06/02 04:31:34;;;;;;;5.65;2.45;;;;;;;;;;5098524;28;20070;-68
2022/06/02 04:33:59;;;;;;;5.22;2.55;;;;;;;;;;5097571;28;20020;-68
2022/06/02 04:36:43;;;;;;;4.40;2.42;;;;;;;;;;5063171;28;1144165;-68
2022/06/02 04:39:26;;;;;;;7.97;3.08;;;;;;;;;;5098110;28;20115;-68
2022/06/02 04:42:05;;;;;;;4.53;2.30;;;;;;;;;;5107269;28;20031;-68
2022/06/02 04:44:47;;;;;;;3.97;2.45;;;;;;;;;;5101633;28;20075;-68
2022/06/02 04:47:18;;;;;;;8.05;2.53;;;;;;;;;;5100031;28;20105;-68
2022/06/02 04:50:02;;;;;;;3.53;2.03;;;;;;;;;;5098923;28;20403;-68
2022/06/02 04:52:27;;;;;;;;;;;;;;;;;;5103418;28;20030;-68
2022/06/02 04:54:57;;;;;;;2.75;1.70;;;;;;;;;;5098618;28;19908;-68
2022/06/02 04:57:41;;;;;;;2.75;1.65;;;;;;;;;;5106716;28;20318;-68
2022/06/02 05:00:21;;;;;;;7.10;1.70;;;;;;;;;;5101653;28;20077;-68
2022/06/02 05:02:55;;;;;;;19.15;2.00;;;;;;;;;;5100423;28;20028;-68
2022/06/02 05:05:27;;;;;;;11.00;1.95;;;;;;;;;;5108522;28;20086;-68
2022/06/02 05:08:05;;;;;;;54.35;3.67;;;;;;;;;;5103999;28;20032;-68
2022/06/02 05:10:46;;;;;;;4.43;1.52;;;;;;;;;;5108098;28;20035;-68
2022/06/02 05:13:47;;;;;;;6.40;1.40;;;;;;;;;;5109176;28;20499;-68
2022/06/02 05:16:23;;;;;;;4.40;1.63;;;;;;;;;;5022159;28;20046;-68
2022/06/02 05:19:04;;;;;;;7.47;1.50;;;;;;;;;;5089243;28;20043;-68
2022/06/02 05:21:38;;;;;;;2.20;1.33;;;;;;;;;;5100704;28;20438;-68
2022/06/02 05:24:22;;;;;;;2.88;1.40;;;;;;;;;;5107980;28;20035;-69
2022/06/02 05:26:50;;;;;;;3.13;1.33;;;;;;;;;;5110816;28;20031;-68
2022/06/02 05:29:34;;;;;;;2.20;1.30;;;;;;;;;;5103931;28;20032;-68
2022/06/02 05:32:14;;;;;;;2.53;1.13;;;;;;;;;;5100875;28;20055;-68
2022/06/02 05:34:45;;;;;;;2.83;1.30;;;;;;;;;;5103910;28;20032;-68
2022/06/02 05:37:31;;;;;;;3.50;1.30;;;;;;;;;;5114011;28;20051;-68
2022/06/02 05:39:56;;;;;;;5.22;1.20;;;;;;;;;;5099949;28;20475;-69
2022/06/02 05:42:26;;;;;;;2.58;1.10;;;;;;;;;;5108107;28;20027;-68
2022/06/02 05:45:17;;;;;;;2.60;1.20;;;;;;;;;;5103927;28;20491;-69
2022/06/02 05:47:42;;;;;;;3.08;1.08;;;;;;;;;;5111872;28;20027;-69
2022/06/02 05:50:23;;;;;;;2.00;1.25;;;;;;;;;;5108165;28;20119;-68
2022/06/02 05:53:04;;;;;;;2.63;1.38;;;;;;;;;;5109478;28;20028;-68
2022/06/02 05:55:34;;;;;;;4.40;1.10;;;;;;;;;;5107782;28;20379;-68
2022/06/02 05:58:08;;;;;;;1.98;1.15;;;;;;;;;;5106615;28;20490;-69
2022/06/02 06:00:56;;;;;;;2.72;1.20;;;;;;;;;;5105684;28;20043;-69
2022/06/02 06:03:37;;;;;;;1.73;1.00;;;;;;;;;;5107637;28;20031;-69
2022/06/02 06:06:10;;;;;;;2.53;1.23;;;;;;;;;;5105155;28;20050;-69
2022/06/02 06:08:54;;;;;;;2.75;1.08;;;;;;;;;;5101267;28;20387;-68
2022/06/02 06:11:19;;;;;;;2.15;1.20;;;;;;;;;;5110302;28;20067;-68
2022/06/02 06:13:44;;;;;;;2.13;1.17;;;;;;;;;;5105955;28;20036;-69
2022/06/02 06:16:17;;;;;;;3.67;1.10;;;;;;;;;;5108019;28;20039;-69
2022/06/02 06:18:51;;;;;;;2.25;1.23;;;;;;;;;;5110382;28;20348;-69
2022/06/02 06:21:32;;;;;;;2.17;1.17;;;;;;;;;;5101555;28;20459;-69
2022/06/02 06:23:57;;;;;;;2.95;1.25;;;;;;;;;;5111121;28;20039;-69
2022/06/02 06:26:29;;;;;;;2.00;1.10;;;;;;;;;;5110663;28;20039;-69
2022/06/02 06:29:13;;;;;;;1.95;1.10;;;;;;;;;;5107111;28;20267;-70
2022/06/02 06:31:56;;;;;;;1.83;1.10;;;;;;;;;;5102630;28;20403;-70
2022/06/02 06:34:42;;;;;;;2.75;1.10;;;;;;;;;;5115417;28;20085;-69
2022/06/02 06:37:26;;;;;;;2.15;1.30;;;;;;;;;;5114281;28;20047;-68
2022/06/02 06:40:03;;;;;;;2.17;1.13;;;;;;;;;;5110976;28;20516;-67
2022/06/02 06:42:31;;;;;;;2.95;1.30;;;;;;;;;;5113907;28;20024;-67
2022/06/02 06:44:56;;;;;;;2.92;1.17;;;;;;;;;;5107719;28;20028;-67
2022/06/02 06:47:21;;;;;;;1.63;1.00;;;;;;;;;;5102571;28;20028;-67
2022/06/02 06:49:56;;;;;;;2.63;1.30;;;;;;;;;;5106178;28;20727;-67
2022/06/02 06:52:32;;;;;;;2.15;1.08;;;;;;;;;;5089761;28;20055;-67
2022/06/02 06:55:21;;;;;;;2.38;1.40;;;;;;;;;;5104742;28;20077;-67
2022/06/02 06:57:58;;;;;;;2.05;1.30;;;;;;;;;;5111077;28;20543;-67
2022/06/02 07:00:33;;;;;;;2.20;1.40;;;;;;;;;;5114626;28;20490;-67
2022/06/02 07:03:13;;;;;;;4.30;1.30;;;;;;;;;;5114337;28;20544;-67
2022/06/02 07:05:48;;;;;;;3.92;1.40;;;;;;;;;;5097087;28;20841;-69
2022/06/02 07:08:23;;;;;;;3.70;1.33;;;;;;;;;;5102105;28;20106;-68
2022/06/02 07:11:07;;;;;;;2.25;1.35;;;;;;;;;;5102414;28;20032;-68
2022/06/02 07:13:40;;;;;;;2.78;1.10;;;;;;;;;;5112670;28;20055;-67
2022/06/02 07:16:26;;;;;;;2.35;1.30;;;;;;;;;;5110648;28;20077;-67
2022/06/02 07:18:58;;;;;;;2.75;1.85;;;;;;;;;;5110182;28;20036;-68
2022/06/02 07:21:29;;;;;;;5.10;1.90;;;;;;;;;;5111889;28;20028;-67
2022/06/02 07:24:05;;;;;;;2.47;1.77;;;;;;;;;;5102585;28;20418;-68
2022/06/02 07:26:33;;;;;;;4.88;1.70;;;;;;;;;;5107786;28;20027;-68
2022/06/02 07:28:58;;;;;;;3.10;2.10;;;;;;;;;;5102559;28;20390;-69
2022/06/02 07:31:23;;;;;;;3.73;2.47;;;;;;;;;;5114384;28;20012;-68
2022/06/02 07:33:52;;;;;;;5.20;2.57;;;;;;;;;;5106974;28;20024;-68
2022/06/02 07:36:24;;;;;;;3.70;2.60;;;;;;;;;;5103547;28;20047;-68
2022/06/02 07:38:52;;;;;;;3.22;2.53;;;;;;;;;;5107522;28;20038;-68
2022/06/02 07:41:31;;;;;;;3.78;2.60;;;;;;;;;;5111366;28;20039;-69
2022/06/02 07:44:03;;;;;;;6.55;3.00;;;;;;;;;;5109094;28;20042;-69
2022/06/02 07:46:31;;;;;;;4.65;3.08;;;;;;;;;;5113171;28;20518;-68
2022/06/02 07:49:02;;;;;;;5.68;3.10;;;;;;;;;;5097841;28;20008;-69
2022/06/02 07:51:37;;;;;;;3.53;2.88;;;;;;;;;;5090837;28;20085;-70
2022/06/02 07:54:21;;;;;;;4.45;3.17;;;;;;;;;;5087906;28;20067;-69
2022/06/02 07:56:54;;;;;;;5.40;2.92;;;;;;;;;;5111656;28;20032;-69
2022/06/02 07:59:38;;;;;;;5.60;3.08;;;;;;;;;;5096168;28;20035;-69
2022/06/02 08:02:23;;;;;;;4.45;3.00;;;;;;;;;;5100807;28;20078;-68
2022/06/02 08:05:00;;;;;;;5.28;3.10;;;;;;;;;;5101324;28;20478;-68
2022/06/02 08:07:38;;;;;;;3.72;2.75;;;;;;;;;;5098495;28;20024;-68
2022/06/02 08:10:13;;;;;;;4.57;3.10;;;;;;;;;;5107501;28;20043;-69
2022/06/02 08:12:50;;;;;;;4.35;3.03;;;;;;;;;;5096237;28;20505;-69
2022/06/02 08:15:38;;;;;;;5.63;2.67;;;;;;;;;;5108234;28;20047;-69
2022/06/02 08:18:24;;;;;;;4.68;2.97;;;;;;;;;;5093221;28;20135;-69
2022/06/02 08:21:15;;;;;;;3.72;2.83;;;;;;;;;;5106458;28;20375;-69
2022/06/02 08:23:59;;;;;;;7.90;2.75;;;;;;;;;;5109361;28;20024;-69
2022/06/02 08:26:44;;;;;;;5.15;2.63;;;;;;;;;;5100954;28;20119;-69
2022/06/02 08:29:09;;;;;;;3.65;2.60;;;;;;;;;;5103559;28;20030;-69
2022/06/02 08:32:00;;;;;;;4.77;2.60;;;;;;;;;;5113119;28;20028;-68
2022/06/02 08:34:29;;;;;;;5.82;2.85;;;;;;;;;;5094876;28;20039;-69
2022/06/02 08:37:03;;;;;;;4.10;2.30;;;;;;;;;;5112142;28;20039;-68
2022/06/02 08:39:28;;;;;;;3.90;2.38;;;;;;;;;;5113038;28;20523;-68
2022/06/02 08:42:09;;;;;;;4.40;2.97;;;;;;;;;;5109750;28;20110;-69
2022/06/02 08:44:37;;;;;;;4.28;2.63;;;;;;;;;;5113340;28;20309;-68
2022/06/02 08:47:08;;;;;;;4.78;3.00;;;;;;;;;;5113384;28;20032;-69
2022/06/02 08:49:33;;;;;;;5.15;3.33;;;;;;;;;;5112244;28;20011;-69
2022/06/02 08:52:08;;;;;;;5.87;3.43;;;;;;;;;;5113479;28;20031;-69
2022/06/02 08:54:48;;;;;;;4.82;3.42;;;;;;;;;;5108409;28;20043;-69
2022/06/02 08:57:23;;;;;;;5.18;3.15;;;;;;;;;;5112589;28;20467;-68
2022/06/02 08:59:48;;;;;;;4.28;2.85;;;;;;;;;;5104959;28;20036;-69
2022/06/02 09:02:13;;;;;;;5.07;3.40;;;;;;;;;;5106790;28;20042;-69
2022/06/02 09:04:57;;;;;;;4.40;3.17;;;;;;;;;;5104236;28;20047;-69
2022/06/02 09:07:41;;;;;;;4.95;2.65;;;;;;;;;;5110092;28;20051;-69
2022/06/02 09:10:15;;;;;;;4.47;3.33;;;;;;;;;;5113242;28;20020;-69
2022/06/02 09:12:59;;;;;;;4.10;2.95;;;;;;;;;;5102217;28;20483;-69
2022/06/02 09:15:42;;;;;;;5.25;3.20;;;;;;;;;;5108367;28;20050;-69
2022/06/02 09:18:18;;;;;;;4.50;3.00;;;;;;;;;;5108963;28;20145;-68
2022/06/02 09:20:43;;;;;;;5.25;3.05;;;;;;;;;;5111832;28;20051;-69
2022/06/02 09:23:14;;;;;;;3.67;2.80;;;;;;;;;;5116451;28;20120;-68
2022/06/02 09:26:06;;;;;;;5.05;3.17;;;;;;;;;;5116548;28;20023;-68
2022/06/02 09:28:31;;;;;;;5.72;3.28;;;;;;;;;;5105889;28;20036;-70
2022/06/02 09:31:15;;;;;;;4.03;2.77;;;;;;;;;;5112231;28;20406;-68
2022/06/02 09:33:49;;;;;;;3.88;2.92;;;;;;;;;;5116439;28;20039;-68
2022/06/02 09:36:33;;;;;;;5.68;2.70;;;;;;;;;;5112993;28;20139;-68
2022/06/02 09:39:16;;;;;;;4.95;2.70;;;;;;;;;;5111032;28;20027;-68
2022/06/02 09:41:42;;;;;;;3.33;2.60;;;;;;;;;;5100219;28;20550;-68
2022/06/02 09:44:07;;;;;;;4.73;3.20;;;;;;;;;;5103709;28;20049;-68
2022/06/02 09:46:53;;;;;;;6.67;2.50;;;;;;;;;;5104639;28;20085;-68
2022/06/02 09:49:24;;;;;;;3.15;2.17;;;;;;;;;;5103391;28;20260;-69
2022/06/02 09:52:02;;;;;;;6.35;2.60;;;;;;;;;;5107398;28;20020;-69
2022/06/02 09:54:30;;;;;;;6.80;2.78;;;;;;;;;;5108344;28;20503;-69
2022/06/02 10:00:25;;;;;;;5.20;2.10;;;;;;;;;;5100637;28;20077;-69
2022/06/02 10:03:13;;;;;;;6.35;1.70;;;;;;;;;;5103906;28;20036;-69
2022/06/02 10:05:50;;;;;;;6.10;1.70;;;;;;;;;;5106092;28;20032;-68
2022/06/02 10:08:16;;;;;;;4.47;1.70;;;;;;;;;;5110453;28;20038;-68
2022/06/02 10:11:00;;;;;;;4.07;1.77;;;;;;;;;;5093343;28;20028;-68
2022/06/02 10:13:48;;;;;;;3.47;1.80;;;;;;;;;;5111813;28;20363;-68
2022/06/02 10:16:23;;;;;;;7.35;1.85;;;;;;;;;;5115042;28;20089;-68
2022/06/02 10:19:07;;;;;;;2.92;1.70;;;;;;;;;;5098186;28;20193;-69
2022/06/02 10:21:32;;;;;;;;;;;;;;;;;;5115779;28;20059;-69
2022/06/02 10:24:03;;;;;;;2.70;1.52;;;;;;;;;;5103709;28;19977;-70
2022/06/02 10:26:31;;;;;;;2.90;1.52;;;;;;;;;;5103554;28;20040;-70
2022/06/02 10:29:00;;;;;;;4.03;1.67;;;;;;;;;;5112263;28;20502;-69
2022/06/02 10:31:34;;;;;;;3.95;1.70;;;;;;;;;;5115044;28;20028;-69
2022/06/02 10:34:15;;;;;;;4.05;1.60;;;;;;;;;;5110243;28;20039;-69
2022/06/02 10:36:40;;;;;;;2.30;1.30;;;;;;;;;;5092729;28;20434;-69
2022/06/02 10:39:06;;;;;;;5.40;2.15;;;;;;;;;;5106030;28;20046;-69
2022/06/02 10:41:49;;;;;;;3.03;1.50;;;;;;;;;;5112538;28;20036;-69
2022/06/02 10:44:19;;;;;;;3.10;1.40;;;;;;;;;;5102864;28;20270;-70
2022/06/02 10:47:03;;;;;;;3.88;1.75;;;;;;;;;;5108015;28;20039;-69
2022/06/02 10:49:38;;;;;;;3.55;1.80;;;;;;;;;;5114332;28;20036;-69
2022/06/02 10:52:23;;;;;;;4.70;1.83;;;;;;;;;;5114843;28;20039;-70
2022/06/02 10:55:14;;;;;;;3.10;1.88;;;;;;;;;;5105499;28;20115;-69
2022/06/02 10:57:44;;;;;;;4.10;2.65;;;;;;;;;;5107402;28;20035;-69
2022/06/02 11:00:17;;;;;;;3.60;1.77;;;;;;;;;;5114679;28;20040;-69
2022/06/02 11:03:01;;;;;;;3.00;2.00;;;;;;;;;;5114203;28;20035;-69
2022/06/02 11:05:29;;;;;;;4.82;1.80;;;;;;;;;;5112082;28;20031;-70
2022/06/02 11:08:03;;;;;;;3.38;1.83;;;;;;;;;;5104032;28;20027;-70
2022/06/02 11:10:30;;;;;;;4.35;1.63;;;;;;;;;;5112766;28;20068;-69
2022/06/02 11:13:10;;;;;;;4.88;1.55;;;;;;;;;;5113962;28;20039;-70
2022/06/02 11:15:35;;;;;;;3.65;1.70;;;;;;;;;;5098830;28;20069;-69
2022/06/02 11:18:19;;;;;;;3.10;1.65;;;;;;;;;;5100807;28;20104;-69
2022/06/02 11:20:45;;;;;;;3.42;1.40;;;;;;;;;;5101120;28;20028;-69
2022/06/02 11:23:13;;;;;;;4.70;1.60;;;;;;;;;;5106547;28;20032;-69
2022/06/02 11:25:39;;;;;;;3.28;1.52;;;;;;;;;;5090515;28;20291;-71
2022/06/02 11:28:13;;;;;;;3.55;1.88;;;;;;;;;;5083977;28;20417;-69
2022/06/02 11:30:44;;;;;;;3.22;1.40;;;;;;;;;;5104857;28;20020;-69
2022/06/02 11:33:14;;;;;;;2.78;1.42;;;;;;;;;;5100632;28;20024;-69
2022/06/02 11:35:42;;;;;;;4.05;1.80;;;;;;;;;;5102879;28;20056;-69
2022/06/02 11:38:33;;;;;;;3.17;1.30;;;;;;;;;;5102023;28;20024;-69
2022/06/02 11:41:04;;;;;;;2.95;1.52;;;;;;;;;;5060615;28;20050;-68
2022/06/02 11:43:44;;;;;;;2.97;1.40;;;;;;;;;;5100500;28;20471;-69
2022/06/02 11:46:28;;;;;;;3.67;1.50;;;;;;;;;;5096184;28;20394;-69
2022/06/02 11:48:53;;;;;;;;;;;;;;;;;;5104543;28;20467;-69
2022/06/02 11:51:37;;;;;;;2.63;1.17;;;;;;;;;;5100889;28;20394;-70
2022/06/02 11:54:02;;;;;;;;;;;;;;;;;;5101681;28;20034;-69
2022/06/02 11:56:41;;;;;;;3.95;1.30;;;;;;;;;;5103134;28;19912;-69
2022/06/02 11:59:06;;;;;;;2.53;1.25;;;;;;;;;;5094584;28;20503;-69
2022/06/02 12:01:47;;;;;;;2.38;1.40;;;;;;;;;;5105364;28;20028;-69
2022/06/02 12:04:33;;;;;;;3.60;1.40;;;;;;;;;;5098898;28;20055;-70
2022/06/02 12:07:20;;;;;;;3.67;1.38;;;;;;;;;;5099103;28;20036;-68
2022/06/02 12:10:04;;;;;;;1.80;1.10;;;;;;;;;;5103805;28;20034;-69
2022/06/02 12:12:41;;;;;;;1.95;1.13;;;;;;;;;;5107239;28;20039;-68
2022/06/02 12:15:19;;;;;;;7.32;1.40;;;;;;;;;;5099584;28;20039;-69
2022/06/02 12:17:53;;;;;;;3.22;1.33;;;;;;;;;;5099524;28;20030;-69
2022/06/02 12:20:25;;;;;;;4.60;1.60;;;;;;;;;;5107454;28;20039;-70
2022/06/02 12:23:09;;;;;;;2.78;1.30;;;;;;;;;;5074498;28;20024;-69
2022/06/02 12:25:49;;;;;;;2.67;1.30;;;;;;;;;;5098735;28;20036;-68
2022/06/02 12:28:26;;;;;;;3.72;1.35;;;;;;;;;;5102162;28;20031;-69
2022/06/02 12:31:05;;;;;;;2.72;1.40;;;;;;;;;;5094084;28;20028;-69
2022/06/02 12:33:36;;;;;;;2.55;1.10;;;;;;;;;;5107931;28;20024;-69
2022/06/02 12:36:01;;;;;;;3.20;1.33;;;;;;;;;;5112231;28;20434;-69
2022/06/02 12:38:39;;;;;;;2.65;1.23;;;;;;;;;;5108620;28;20020;-70
2022/06/02 12:41:40;;;;;;;3.75;1.15;;;;;;;;;;5101114;28;20024;-70
2022/06/02 12:44:31;;;;;;;5.20;1.10;;;;;;;;;;5010608;28;20037;-70
2022/06/02 12:47:03;;;;;;;2.13;1.10;;;;;;;;;;5095704;28;20040;-69
2022/06/02 12:49:28;;;;;;;2.33;1.05;;;;;;;;;;5106691;28;20020;-69
2022/06/02 12:52:12;;;;;;;3.27;1.10;;;;;;;;;;5117118;28;20469;-69
2022/06/02 12:54:55;;;;;;;3.60;1.30;;;;;;;;;;5102885;28;20755;-69
2022/06/02 12:57:35;;;;;;;2.42;1.00;;;;;;;;;;5113172;28;20102;-69
2022/06/02 13:00:13;;;;;;;2.45;1.00;;;;;;;;;;5114395;28;20046;-69
2022/06/02 13:02:57;;;;;;;2.30;1.00;;;;;;;;;;5104134;28;20463;-68
2022/06/02 13:05:41;;;;;;;2.40;0.98;;;;;;;;;;5112831;28;20070;-69
2022/06/02 13:08:21;;;;;;;3.17;1.15;;;;;;;;;;5112317;28;20043;-69
2022/06/02 13:11:05;;;;;;;7.00;1.00;;;;;;;;;;5108009;28;20471;-69
2022/06/02 13:13:30;;;;;;;;;;;;;;;;;;5111825;28;20494;-69
2022/06/02 13:15:55;;;;;;;1.88;1.00;;;;;;;;;;5115391;28;20355;-69
2022/06/02 13:18:21;;;;;;;1.90;1.00;;;;;;;;;;5116878;28;20555;-68
2022/06/02 13:20:55;;;;;;;2.25;1.13;;;;;;;;;;5104192;28;20309;-68
2022/06/02 13:23:23;;;;;;;7.32;1.20;;;;;;;;;;5113337;28;20038;-69
2022/06/02 13:25:49;;;;;;;2.20;1.10;;;;;;;;;;5115539;28;20463;-69
2022/06/02 13:28:17;;;;;;;2.05;1.27;;;;;;;;;;5111943;28;20103;-69
2022/06/02 13:30:42;;;;;;;5.55;1.00;;;;;;;;;;5116091;28;20102;-69
2022/06/02 13:33:23;;;;;;;1.87;0.93;;;;;;;;;;5109353;28;20459;-69
2022/06/02 13:36:08;;;;;;;4.28;1.30;;;;;;;;;;5083302;28;20287;-69
2022/06/02 13:38:50;;;;;;;3.72;0.93;;;;;;;;;;5095115;28;20028;-69
2022/06/02 13:41:28;;;;;;;3.85;1.20;;;;;;;;;;5116253;28;20035;-69
2022/06/02 13:43:56;;;;;;;2.65;1.08;;;;;;;;;;5110247;28;20676;-70
2022/06/02 13:46:30;;;;;;;3.53;1.13;;;;;;;;;;5110550;28;20062;-69
2022/06/02 13:49:14;;;;;;;3.63;1.10;;;;;;;;;;5110576;28;20027;-69
2022/06/02 13:52:00;;;;;;;1.92;1.00;;;;;;;;;;5104860;28;20035;-69
2022/06/02 13:57:44;;;;;;;3.45;1.10;;;;;;;;;;5101604;28;20386;-70
2022/06/02 14:00:18;;;;;;;3.30;1.10;;;;;;;;;;5111449;28;20028;-69
2022/06/02 14:02:43;;;;;;;;;;;;;;;;;;5107805;28;20405;-69
2022/06/02 14:05:08;;;;;;;1.90;1.15;;;;;;;;;;5088862;28;19912;-69
2022/06/02 14:07:51;;;;;;;2.13;1.05;;;;;;;;;;5106601;28;20028;-69
2022/06/02 14:10:29;;;;;;;2.75;1.20;;;;;;;;;;5110088;28;20107;-69
2022/06/02 14:13:09;;;;;;;1.90;1.05;;;;;;;;;;5103144;28;20081;-69
2022/06/02 14:15:43;;;;;;;2.20;0.90;;;;;;;;;;5107030;28;20039;-69
2022/06/02 14:18:29;;;;;;;3.17;1.02;;;;;;;;;;5102938;28;20039;-69
2022/06/02 14:21:13;;;;;;;3.67;1.20;;;;;;;;;;5099790;28;20028;-69
2022/06/02 14:23:44;;;;;;;2.10;1.00;;;;;;;;;;5104046;28;20027;-68
2022/06/02 14:26:09;;;;;;;2.45;1.00;;;;;;;;;;5104268;28;20027;-69
2022/06/02 14:28:54;;;;;;;2.03;1.10;;;;;;;;;;5097175;28;20035;-69
2022/06/02 14:31:31;;;;;;;2.35;1.10;;;;;;;;;;5102534;28;20308;-69
2022/06/02 14:34:20;;;;;;;1.73;1.00;;;;;;;;;;5106435;28;20023;-68
2022/06/02 14:36:55;;;;;;;2.85;1.10;;;;;;;;;;5093234;28;20096;-68
2022/06/02 14:39:26;;;;;;;1.77;0.90;;;;;;;;;;5100338;28;20053;-68
2022/06/02 14:41:57;;;;;;;1.50;0.80;;;;;;;;;;5108805;28;20031;-69
2022/06/02 14:44:25;;;;;;;1.92;1.00;;;;;;;;;;5104828;28;20471;-69
2022/06/02 14:46:56;;;;;;;2.67;1.00;;;;;;;;;;5104055;28;20047;-69
2022/06/02 14:49:28;;;;;;;5.45;1.10;;;;;;;;;;5100154;28;20024;-69
2022/06/02 14:52:08;;;;;;;2.13;1.00;;;;;;;;;;5107750;28;20039;-69
2022/06/02 14:54:42;;;;;;;3.05;1.00;;;;;;;;;;5102684;28;20046;-69
2022/06/02 14:57:13;;;;;;;2.38;1.02;;;;;;;;;;5100335;28;20036;-70
2022/06/02 14:59:38;;;;;;;2.35;0.93;;;;;;;;;;5103922;28;20024;-69
2022/06/02 15:02:23;;;;;;;2.20;0.90;;;;;;;;;;5114299;28;20046;-68
2022/06/02 15:05:20;;;;;;;1.23;0.73;;;;;;;;;;5104268;28;20081;-69
2022/06/02 15:08:03;;;;;;;4.75;1.00;;;;;;;;;;5114352;28;20027;-69
2022/06/02 15:10:32;;;;;;;1.50;0.90;;;;;;;;;;5112989;28;20451;-69
2022/06/02 15:13:06;;;;;;;5.00;1.00;;;;;;;;;;5104630;28;20032;-69
2022/06/02 15:15:40;;;;;;;2.13;1.05;;;;;;;;;;5111816;28;20044;-68
2022/06/02 15:18:18;;;;;;;1.67;1.00;;;;;;;;;;5108976;28;20027;-69
2022/06/02 15:20:50;;;;;;;1.60;0.95;;;;;;;;;;5100263;28;20027;-69
2022/06/02 15:23:42;;;;;;;3.65;1.10;;;;;;;;;;5104854;28;20081;-68
2022/06/02 15:26:26;;;;;;;2.10;0.90;;;;;;;;;;5101369;28;20035;-69
2022/06/02 15:28:51;;;;;;;;;;;;;;;;;;5105510;28;20020;-68
2022/06/02 15:31:36;;;;;;;4.22;1.33;;;;;;;;;;5100564;28;19914;-69
2022/06/02 15:34:20;;;;;;;2.20;1.00;;;;;;;;;;5086665;28;20048;-68
2022/06/02 15:36:51;;;;;;;2.42;1.20;;;;;;;;;;5103224;28;20047;-69
2022/06/02 15:39:19;;;;;;;3.75;1.10;;;;;;;;;;5109249;28;20039;-69
2022/06/02 15:42:03;;;;;;;1.88;0.90;;;;;;;;;;5111647;28;20455;-69
2022/06/02 15:44:34;;;;;;;3.38;1.10;;;;;;;;;;5100204;28;20032;-69
2022/06/02 15:47:18;;;;;;;2.30;1.20;;;;;;;;;;5107368;28;20467;-69
2022/06/02 15:49:43;;;;;;;;;;;;;;;;;;5106259;28;20118;-69
2022/06/02 15:52:11;;;;;;;2.15;0.90;;;;;;;;;;5106620;28;19998;-69